Time;durP1;ratioP1;P1;durP2;ratioP2;P2;SDS_P1;SDS_P2;PMS_P1;PMS_P2;Temp;Humidity;BMP_temperature;BMP_pressure;BME280_temperature;BME280_humidity;BME280_pressure;Samples;Min_cycle;Max_cycle;Signal;HPM_P1;HPM_P2
2022/12/10 00:01:20;;;;;;;132.95;60.00;;;-0.70;95.60;;;;;;5021704;28;20495;-90
2022/12/10 00:03:46;;;;;;;134.70;61.15;;;-0.60;95.70;;;;;;5022366;28;20401;-88
2022/12/10 00:06:14;;;;;;;122.50;58.72;;;-0.50;95.80;;;;;;5021079;28;20417;-89
2022/12/10 00:08:40;;;;;;;123.18;58.03;;;-0.40;96.00;;;;;;5022543;28;20413;-89
2022/12/10 00:11:08;;;;;;;134.77;59.17;;;-0.40;95.90;;;;;;5004232;28;20943;-90
2022/12/10 00:13:35;;;;;;;122.50;58.33;;;-0.30;95.80;;;;;;5005816;28;20424;-90
2022/12/10 00:16:02;;;;;;;121.43;58.28;;;-0.20;95.90;;;;;;5021598;28;20908;-89
2022/12/10 00:18:27;;;;;;;129.55;59.30;;;-0.20;95.70;;;;;;5021857;28;20479;-89
2022/12/10 00:20:54;;;;;;;122.70;59.38;;;-0.10;95.70;;;;;;5021951;28;20441;-89
2022/12/10 00:23:19;;;;;;;116.33;58.03;;;-0.10;95.60;;;;;;5021430;28;20401;-89
2022/12/10 00:25:45;;;;;;;116.43;57.63;;;0.00;95.50;;;;;;5005612;28;20510;-90
2022/12/10 00:28:10;;;;;;;115.65;56.80;;;0.00;95.30;;;;;;5004439;28;20440;-89
2022/12/10 00:30:36;;;;;;;118.90;57.05;;;0.00;95.30;;;;;;5022325;28;20440;-89
2022/12/10 00:33:02;;;;;;;113.57;57.50;;;0.00;95.30;;;;;;5020826;28;20459;-89
2022/12/10 00:35:27;;;;;;;122.13;59.20;;;0.10;95.30;;;;;;5009515;28;20475;-89
2022/12/10 00:37:53;;;;;;;108.80;56.20;;;0.10;95.30;;;;;;5025089;28;20930;-89
2022/12/10 00:40:19;;;;;;;117.50;58.05;;;0.20;95.30;;;;;;5025800;28;20817;-90
2022/12/10 00:42:45;;;;;;;122.65;59.38;;;0.10;95.20;;;;;;5026274;28;20411;-89
2022/12/10 00:45:10;;;;;;;114.90;58.43;;;0.20;95.20;;;;;;5008213;28;20456;-90
2022/12/10 00:47:36;;;;;;;111.72;56.42;;;0.20;95.20;;;;;;5026092;28;20950;-88
2022/12/10 00:50:01;;;;;;;104.93;54.92;;;0.20;95.10;;;;;;5008497;28;20457;-89
2022/12/10 00:52:27;;;;;;;111.63;56.93;;;0.20;95.00;;;;;;5009575;28;20411;-89
2022/12/10 00:54:53;;;;;;;110.60;55.97;;;0.30;95.00;;;;;;5024770;28;20408;-90
2022/12/10 00:57:21;;;;;;;111.57;57.42;;;0.20;95.00;;;;;;5025719;28;20483;-89
2022/12/10 00:59:47;;;;;;;120.13;58.78;;;0.30;95.00;;;;;;5025464;28;20451;-89
2022/12/10 01:02:12;;;;;;;122.37;59.67;;;0.30;95.00;;;;;;5008532;28;20909;-89
2022/12/10 01:04:38;;;;;;;121.97;59.53;;;0.30;95.00;;;;;;5025637;28;20417;-90
2022/12/10 01:07:04;;;;;;;127.10;59.63;;;0.30;95.00;;;;;;5024012;28;20436;-89
2022/12/10 01:09:30;;;;;;;115.70;57.67;;;0.30;95.00;;;;;;5026017;28;20419;-89
2022/12/10 01:11:59;;;;;;;123.75;58.65;;;0.30;95.00;;;;;;5024366;28;20490;-89
2022/12/10 01:14:31;;;;;;;132.05;59.80;;;0.30;95.00;;;;;;5025386;28;20392;-89
2022/12/10 01:17:04;;;;;;;140.40;63.03;;;0.30;95.10;;;;;;5024755;28;20413;-87
2022/12/10 01:19:31;;;;;;;143.17;62.50;;;0.30;95.10;;;;;;5024379;28;20413;-90
2022/12/10 01:21:57;;;;;;;142.85;62.45;;;0.30;95.20;;;;;;5025597;28;20398;-89
2022/12/10 01:24:25;;;;;;;147.50;62.38;;;0.30;95.20;;;;;;5024048;28;20500;-89
2022/12/10 01:26:51;;;;;;;149.88;63.75;;;0.30;95.20;;;;;;5009260;28;20518;-90
2022/12/10 01:29:17;;;;;;;174.50;66.25;;;0.30;95.30;;;;;;5007428;28;21042;-89
2022/12/10 01:31:42;;;;;;;150.80;63.87;;;0.40;95.30;;;;;;5008415;28;20471;-89
2022/12/10 01:34:11;;;;;;;156.23;64.57;;;0.40;95.40;;;;;;5024316;28;20444;-90
2022/12/10 01:36:43;;;;;;;170.05;65.97;;;0.40;95.30;;;;;;5008016;28;20401;-89
2022/12/10 01:39:10;;;;;;;179.20;68.30;;;0.40;95.30;;;;;;5025382;28;20735;-88
2022/12/10 01:41:40;;;;;;;174.25;64.10;;;0.40;95.30;;;;;;5023709;28;20404;-89
2022/12/10 01:44:25;;;;;;;215.38;71.97;;;0.40;95.40;;;;;;5025276;28;20747;-89
2022/12/10 01:46:57;;;;;;;196.48;70.55;;;0.40;95.40;;;;;;5023918;28;20800;-88
2022/12/10 01:49:26;;;;;;;226.60;73.28;;;0.30;95.40;;;;;;5024341;28;20411;-89
2022/12/10 01:51:55;;;;;;;189.20;68.80;;;0.40;95.50;;;;;;5024605;28;20426;-90
2022/12/10 01:54:28;;;;;;;187.20;67.63;;;0.40;95.50;;;;;;5023751;28;20405;-89
2022/12/10 01:57:09;;;;;;;186.30;68.07;;;0.30;95.50;;;;;;5024849;28;20420;-89
2022/12/10 01:59:36;;;;;;;188.18;68.38;;;0.30;95.50;;;;;;5023594;28;20499;-90
2022/12/10 02:02:40;;;;;;;204.95;70.05;;;0.30;95.50;;;;;;5024551;28;20441;-90
2022/12/10 02:05:27;;;;;;;198.05;69.38;;;0.30;95.50;;;;;;5003069;28;20421;-88
2022/12/10 02:08:17;;;;;;;194.05;67.72;;;0.30;95.50;;;;;;5006948;28;20820;-89
2022/12/10 02:10:58;;;;;;;196.38;68.60;;;0.30;95.50;;;;;;4991335;28;20844;-89
2022/12/10 02:13:28;;;;;;;211.60;71.82;;;0.40;95.80;;;;;;5023887;28;21069;-89
2022/12/10 02:16:04;;;;;;;197.20;70.07;;;0.30;95.50;;;;;;5006700;28;20923;-90
2022/12/10 02:18:46;;;;;;;182.70;67.10;;;0.30;95.60;;;;;;5024629;28;20415;-89
2022/12/10 02:21:22;;;;;;;190.63;69.37;;;0.30;95.60;;;;;;5006515;28;20420;-88
2022/12/10 02:23:54;;;;;;;174.02;68.78;;;0.30;95.50;;;;;;5007332;28;20420;-89
2022/12/10 02:26:23;;;;;;;158.90;64.70;;;0.30;95.50;;;;;;5023929;28;20494;-89
2022/12/10 02:29:04;;;;;;;149.40;64.43;;;0.30;95.40;;;;;;5023019;28;20420;-90
2022/12/10 02:31:32;;;;;;;158.13;64.97;;;0.30;95.30;;;;;;5007657;28;20423;-89
2022/12/10 02:34:00;;;;;;;143.40;63.13;;;0.30;95.20;;;;;;5022847;28;20409;-89
2022/12/10 02:36:30;;;;;;;123.20;59.00;;;0.30;95.20;;;;;;5023869;28;20412;-89
2022/12/10 02:38:56;;;;;;;125.47;59.97;;;0.20;95.20;;;;;;5023299;28;20811;-89
2022/12/10 02:41:28;;;;;;;126.63;58.08;;;0.20;94.90;;;;;;5006869;28;20954;-89
2022/12/10 02:43:56;;;;;;;118.38;58.05;;;0.20;94.90;;;;;;5007323;28;20436;-88
2022/12/10 02:46:24;;;;;;;117.80;56.53;;;0.20;94.90;;;;;;5022509;28;20577;-89
2022/12/10 02:48:50;;;;;;;122.28;58.35;;;0.20;94.90;;;;;;5023945;28;20453;-89
2022/12/10 02:51:16;;;;;;;119.13;57.70;;;0.20;94.90;;;;;;5022382;28;20405;-89
2022/12/10 02:53:43;;;;;;;122.37;58.03;;;0.20;94.80;;;;;;5023743;28;20405;-90
2022/12/10 02:56:17;;;;;;;119.43;57.58;;;0.20;94.90;;;;;;5022314;28;20768;-89
2022/12/10 02:59:08;;;;;;;110.57;56.13;;;0.20;94.70;;;;;;5023100;28;20440;-90
2022/12/10 03:01:57;;;;;;;125.10;59.63;;;0.20;94.70;;;;;;5023886;28;20424;-88
2022/12/10 03:04:50;;;;;;;125.63;58.47;;;0.20;94.80;;;;;;5022527;28;20409;-90
2022/12/10 03:07:23;;;;;;;114.78;57.60;;;0.10;94.70;;;;;;4987825;28;20455;-89
2022/12/10 03:09:54;;;;;;;120.82;58.80;;;0.20;94.50;;;;;;5023107;28;20412;-90
2022/12/10 03:12:25;;;;;;;123.53;59.20;;;0.10;94.80;;;;;;5022329;28;20409;-90
2022/12/10 03:14:53;;;;;;;119.90;58.58;;;0.10;94.70;;;;;;5024063;28;20412;-89
2022/12/10 03:17:20;;;;;;;117.97;58.78;;;0.10;94.90;;;;;;5005872;28;20401;-91
2022/12/10 03:19:50;;;;;;;116.78;56.78;;;0.10;94.90;;;;;;5006986;28;20527;-90
2022/12/10 03:22:19;;;;;;;109.75;55.45;;;0.10;94.90;;;;;;5005978;28;20413;-89
2022/12/10 03:24:44;;;;;;;120.05;57.83;;;0.10;94.70;;;;;;5006306;28;20780;-90
2022/12/10 03:27:12;;;;;;;116.40;57.23;;;0.10;94.70;;;;;;5022774;28;20433;-88
2022/12/10 03:29:45;;;;;;;118.60;56.10;;;0.10;94.60;;;;;;5005436;28;20781;-90
2022/12/10 03:32:11;;;;;;;134.10;61.80;;;0.10;94.60;;;;;;5023450;28;20413;-90
2022/12/10 03:34:37;;;;;;;143.63;61.00;;;0.10;94.70;;;;;;5004955;28;21007;-90
2022/12/10 03:37:04;;;;;;;145.13;60.92;;;0.10;94.90;;;;;;5022685;28;20423;-89
2022/12/10 03:39:30;;;;;;;144.43;62.33;;;0.20;94.90;;;;;;5022341;28;20405;-90
2022/12/10 03:41:56;;;;;;;149.50;62.55;;;0.10;94.90;;;;;;5005819;28;20469;-89
2022/12/10 03:44:30;;;;;;;170.85;66.07;;;0.00;95.00;;;;;;5022551;28;20413;-89
2022/12/10 03:46:56;;;;;;;180.55;67.32;;;0.00;95.10;;;;;;5021402;28;20440;-89
2022/12/10 03:49:21;;;;;;;171.07;65.47;;;0.00;95.20;;;;;;5023603;28;20772;-89
2022/12/10 03:51:47;;;;;;;198.10;66.10;;;0.00;95.20;;;;;;5004908;28;20417;-90
2022/12/10 03:54:13;;;;;;;171.35;65.82;;;0.00;95.30;;;;;;5022736;28;20408;-89
2022/12/10 03:56:38;;;;;;;189.47;68.00;;;0.00;95.30;;;;;;4998136;28;20429;-89
2022/12/10 03:59:04;;;;;;;225.10;68.67;;;-0.10;95.20;;;;;;4986389;28;20481;-89
2022/12/10 04:01:30;;;;;;;204.43;66.57;;;-0.10;95.30;;;;;;4986065;28;20407;-90
2022/12/10 04:03:55;;;;;;;225.20;65.53;;;-0.10;95.30;;;;;;4985788;28;20414;-88
2022/12/10 04:06:21;;;;;;;183.23;66.90;;;-0.10;95.30;;;;;;4970172;28;20442;-89
2022/12/10 04:08:48;;;;;;;183.20;64.93;;;-0.10;95.30;;;;;;4985418;28;20434;-89
2022/12/10 04:11:15;;;;;;;219.40;68.32;;;-0.10;95.30;;;;;;4986479;28;20489;-88
2022/12/10 04:16:28;;;;;;;238.40;71.47;;;-0.10;95.50;;;;;;4986054;28;20418;-90
2022/12/10 04:18:55;;;;;;;263.35;71.07;;;-0.10;95.50;;;;;;4986184;28;20407;-89
2022/12/10 04:26:53;;;;;;;279.20;76.82;;;-0.10;95.70;;;;;;4984889;28;20442;-89
2022/12/10 04:29:25;;;;;;;316.63;80.22;;;-0.10;95.80;;;;;;4986384;28;20410;-91
2022/12/10 04:31:52;;;;;;;256.55;74.05;;;-0.10;95.80;;;;;;4985834;28;20430;-88
2022/12/10 04:34:17;;;;;;;276.15;77.68;;;-0.10;95.80;;;;;;4984985;28;20418;-89
2022/12/10 04:36:43;;;;;;;320.98;79.20;;;-0.10;95.90;;;;;;4985936;28;21013;-90
2022/12/10 04:39:11;;;;;;;311.05;79.07;;;-0.10;95.90;;;;;;4984763;28;20403;-89
2022/12/10 04:41:39;;;;;;;324.30;78.88;;;0.00;96.00;;;;;;4986589;28;20799;-89
2022/12/10 04:44:05;;;;;;;370.52;83.05;;;0.00;96.00;;;;;;4984935;28;20414;-90
2022/12/10 04:46:30;;;;;;;389.15;87.63;;;0.00;96.00;;;;;;4969464;28;20461;-88
2022/12/10 04:48:56;;;;;;;434.23;88.28;;;0.00;96.10;;;;;;4985017;28;20497;-90
2022/12/10 04:51:22;;;;;;;552.00;96.97;;;0.10;96.10;;;;;;4968881;28;20410;-88
2022/12/10 04:53:47;;;;;;;417.23;90.63;;;0.10;96.20;;;;;;4985822;28;20425;-90
2022/12/10 04:56:13;;;;;;;339.58;81.97;;;0.10;96.10;;;;;;4984380;28;20407;-89
2022/12/10 04:58:38;;;;;;;543.00;96.93;;;0.10;96.10;;;;;;4985894;28;20460;-89
2022/12/10 05:01:07;;;;;;;522.17;95.00;;;0.10;96.10;;;;;;4968405;28;20494;-87
2022/12/10 05:03:33;;;;;;;437.45;91.13;;;0.10;96.10;;;;;;4985865;28;20928;-89
2022/12/10 05:06:08;;;;;;;465.93;91.50;;;0.10;96.20;;;;;;4984581;28;20501;-88
2022/12/10 05:08:34;;;;;;;380.98;84.10;;;0.10;96.20;;;;;;4985298;28;20736;-89
2022/12/10 05:11:06;;;;;;;387.67;87.53;;;0.10;96.20;;;;;;4985575;28;20770;-89
2022/12/10 05:13:32;;;;;;;555.45;102.00;;;0.20;96.20;;;;;;4984176;28;20411;-89
2022/12/10 05:15:57;;;;;;;469.92;93.28;;;0.20;96.20;;;;;;4985913;28;20937;-90
2022/12/10 05:18:23;;;;;;;489.65;95.07;;;0.20;96.20;;;;;;4984204;28;20410;-88
2022/12/10 05:20:49;;;;;;;455.90;91.78;;;0.30;96.30;;;;;;4987936;28;20422;-90
2022/12/10 05:23:28;;;;;;;473.85;91.20;;;0.20;96.30;;;;;;4988141;28;20413;-88
2022/12/10 05:26:00;;;;;;;541.05;96.20;;;0.20;96.30;;;;;;4988627;28;20475;-89
2022/12/10 05:28:26;;;;;;;355.50;81.57;;;0.20;96.30;;;;;;4988915;28;20421;-89
2022/12/10 05:30:52;;;;;;;446.23;87.75;;;0.30;96.30;;;;;;4987804;28;20417;-88
2022/12/10 05:33:17;;;;;;;468.00;92.65;;;0.30;96.30;;;;;;4988976;28;20406;-89
2022/12/10 05:35:43;;;;;;;309.23;78.22;;;0.30;96.40;;;;;;4987601;28;20425;-90
2022/12/10 05:38:10;;;;;;;340.92;79.63;;;0.30;96.30;;;;;;4989497;28;20746;-90
2022/12/10 05:40:37;;;;;;;317.48;75.68;;;0.30;96.30;;;;;;4987450;28;22002;-88
2022/12/10 05:43:03;;;;;;;565.00;93.07;;;0.40;96.30;;;;;;4988305;28;20505;-89
2022/12/10 05:45:31;;;;;;;443.60;86.53;;;0.30;96.30;;;;;;4988187;28;20414;-89
2022/12/10 05:47:56;;;;;;;334.52;77.63;;;0.40;96.40;;;;;;4987520;28;20406;-88
2022/12/10 05:50:22;;;;;;;462.00;87.43;;;0.40;96.50;;;;;;4988570;28;20421;-89
2022/12/10 05:52:50;;;;;;;394.63;80.30;;;0.40;96.40;;;;;;4977410;28;20409;-90
2022/12/10 05:55:16;;;;;;;396.23;79.57;;;0.40;96.40;;;;;;5008072;28;20413;-91
2022/12/10 05:57:41;;;;;;;292.97;73.90;;;0.40;96.40;;;;;;5006415;28;20420;-89
2022/12/10 06:00:08;;;;;;;585.77;99.77;;;0.40;96.40;;;;;;5008033;28;20825;-88
2022/12/10 06:02:33;;;;;;;402.45;86.57;;;0.40;96.40;;;;;;5007505;28;20439;-87
2022/12/10 06:04:59;;;;;;;371.27;79.47;;;0.50;96.50;;;;;;5007650;28;20409;-89
2022/12/10 06:07:25;;;;;;;397.08;84.25;;;0.50;96.50;;;;;;5007307;28;20923;-89
2022/12/10 06:09:50;;;;;;;349.27;76.75;;;0.50;96.50;;;;;;5006967;28;20400;-89
2022/12/10 06:12:16;;;;;;;354.17;78.60;;;0.50;96.50;;;;;;5007908;28;20408;-89
2022/12/10 06:14:42;;;;;;;556.92;92.57;;;0.50;96.50;;;;;;5006405;28;20420;-88
2022/12/10 06:17:08;;;;;;;686.23;105.70;;;0.50;96.50;;;;;;5008064;28;20424;-89
2022/12/10 06:19:33;;;;;;;404.07;83.03;;;0.60;96.50;;;;;;5023560;28;20982;-89
2022/12/10 06:21:59;;;;;;;453.80;79.38;;;0.80;96.60;;;;;;5007648;28;20768;-89
2022/12/10 06:24:25;;;;;;;382.80;72.95;;;0.60;96.50;;;;;;5005024;28;20417;-89
2022/12/10 06:26:50;;;;;;;409.50;74.43;;;0.80;96.60;;;;;;4986733;28;20434;-90
2022/12/10 06:29:16;;;;;;;350.13;69.75;;;0.60;96.50;;;;;;4988427;28;20411;-89
2022/12/10 06:31:43;;;;;;;307.48;67.00;;;0.60;96.40;;;;;;4985655;28;20757;-89
2022/12/10 06:34:09;;;;;;;325.00;65.20;;;0.70;96.40;;;;;;4989643;28;20964;-90
2022/12/10 06:36:34;;;;;;;394.90;68.03;;;0.70;96.40;;;;;;5005874;28;20448;-88
2022/12/10 06:39:00;;;;;;;319.55;63.38;;;0.70;96.40;;;;;;5040926;28;20401;-89
2022/12/10 06:41:26;;;;;;;283.88;58.10;;;0.80;96.40;;;;;;5039942;28;20413;-88
2022/12/10 06:43:51;;;;;;;385.73;68.30;;;0.60;96.70;;;;;;5023195;28;20412;-89
2022/12/10 06:46:20;;;;;;;508.67;74.57;;;0.70;96.40;;;;;;5001933;28;20944;-90
2022/12/10 06:48:46;;;;;;;294.45;61.92;;;0.60;96.40;;;;;;5023006;28;20405;-88
2022/12/10 06:51:13;;;;;;;366.27;66.93;;;0.60;96.40;;;;;;5040620;28;20452;-89
2022/12/10 06:53:40;;;;;;;254.88;57.55;;;0.70;96.50;;;;;;5038468;28;20486;-89
2022/12/10 06:56:07;;;;;;;296.02;58.33;;;0.70;96.50;;;;;;5007076;28;20462;-88
2022/12/10 06:58:34;;;;;;;316.58;58.88;;;0.70;96.40;;;;;;5038832;28;20550;-89
2022/12/10 07:01:04;;;;;;;276.55;57.55;;;0.70;96.40;;;;;;5039523;28;20458;-89
2022/12/10 07:03:30;;;;;;;268.42;56.90;;;0.70;96.30;;;;;;5006964;28;20780;-89
2022/12/10 07:05:58;;;;;;;372.58;62.47;;;0.70;96.30;;;;;;5038456;28;20433;-89
2022/12/10 07:08:23;;;;;;;308.97;57.60;;;0.70;96.30;;;;;;5023965;28;20404;-89
2022/12/10 07:10:49;;;;;;;268.80;55.77;;;0.70;96.30;;;;;;5022210;28;20503;-90
2022/12/10 07:13:15;;;;;;;338.58;58.92;;;0.70;96.30;;;;;;5023338;28;20413;-90
2022/12/10 07:15:40;;;;;;;276.65;57.72;;;0.70;96.30;;;;;;5038719;28;20405;-89
2022/12/10 07:18:06;;;;;;;249.93;55.70;;;0.70;96.40;;;;;;5006676;28;20452;-89
2022/12/10 07:20:32;;;;;;;245.37;51.37;;;0.70;96.40;;;;;;5022528;28;20401;-90
2022/12/10 07:22:57;;;;;;;349.20;58.65;;;0.90;96.40;;;;;;5005779;28;20416;-89
2022/12/10 07:25:23;;;;;;;436.45;63.95;;;0.70;96.30;;;;;;5039829;28;20431;-90
2022/12/10 07:27:48;;;;;;;230.80;52.07;;;0.70;96.30;;;;;;5038245;28;20468;-89
2022/12/10 07:30:14;;;;;;;254.20;50.17;;;0.70;96.30;;;;;;5040357;28;20409;-90
2022/12/10 07:32:40;;;;;;;222.65;48.35;;;0.70;96.30;;;;;;5021849;28;20404;-90
2022/12/10 07:35:05;;;;;;;209.03;47.67;;;0.70;96.20;;;;;;5022975;28;20854;-91
2022/12/10 07:37:32;;;;;;;254.65;50.20;;;0.70;96.10;;;;;;4999423;28;20950;-89
2022/12/10 07:39:58;;;;;;;239.80;49.13;;;0.70;96.10;;;;;;5004954;28;20405;-90
2022/12/10 07:42:23;;;;;;;290.87;51.43;;;0.60;96.00;;;;;;5005444;28;20892;-89
2022/12/10 07:44:49;;;;;;;192.30;45.90;;;0.60;96.10;;;;;;5004676;28;20409;-90
2022/12/10 07:47:15;;;;;;;170.13;43.28;;;0.60;96.10;;;;;;5006332;28;20823;-89
2022/12/10 07:49:41;;;;;;;190.20;44.33;;;0.60;96.10;;;;;;5000825;28;20906;-89
2022/12/10 07:52:08;;;;;;;187.37;44.17;;;0.60;96.10;;;;;;4999042;28;20410;-89
2022/12/10 07:54:34;;;;;;;197.88;43.35;;;0.60;96.00;;;;;;4990743;28;20769;-90
2022/12/10 07:57:00;;;;;;;199.20;44.00;;;0.70;96.10;;;;;;5005313;28;20416;-90
2022/12/10 07:59:25;;;;;;;325.92;51.13;;;0.70;96.00;;;;;;5005427;28;20405;-89
2022/12/10 08:01:52;;;;;;;192.25;42.63;;;0.60;96.10;;;;;;5021637;28;20444;-90
2022/12/10 08:04:18;;;;;;;230.02;42.97;;;0.60;96.10;;;;;;4989270;28;20413;-90
2022/12/10 08:06:43;;;;;;;271.17;44.47;;;0.60;96.10;;;;;;5003547;28;20537;-89
2022/12/10 08:09:10;;;;;;;185.18;39.83;;;0.60;96.10;;;;;;5006000;28;20789;-90
2022/12/10 08:11:35;;;;;;;200.93;40.83;;;0.70;96.20;;;;;;5004778;28;20817;-90
2022/12/10 08:14:01;;;;;;;214.60;39.80;;;0.60;96.10;;;;;;5005648;28;20427;-88
2022/12/10 08:16:29;;;;;;;231.53;42.57;;;0.60;96.10;;;;;;5004852;28;20487;-88
2022/12/10 08:18:56;;;;;;;193.30;38.20;;;0.60;96.10;;;;;;5022089;28;20408;-89
2022/12/10 08:21:24;;;;;;;166.50;35.60;;;0.60;96.20;;;;;;5005887;28;20912;-88
2022/12/10 08:23:50;;;;;;;217.48;40.55;;;0.60;96.20;;;;;;5004796;28;20496;-89
2022/12/10 08:26:21;;;;;;;172.60;36.60;;;0.60;96.20;;;;;;5005858;28;20515;-89
2022/12/10 08:28:48;;;;;;;204.23;37.53;;;0.70;96.20;;;;;;5004172;28;20981;-88
2022/12/10 08:31:15;;;;;;;205.13;37.67;;;0.70;96.20;;;;;;5006315;28;20463;-90
2022/12/10 08:33:41;;;;;;;166.85;36.97;;;0.70;96.10;;;;;;5004490;28;20400;-89
2022/12/10 08:36:08;;;;;;;194.63;37.45;;;0.70;96.10;;;;;;5005179;28;20958;-90
2022/12/10 08:38:34;;;;;;;187.90;35.63;;;0.70;96.10;;;;;;4989862;28;20418;-88
2022/12/10 08:41:06;;;;;;;214.57;38.07;;;0.70;96.00;;;;;;4968717;28;20425;-89
2022/12/10 08:43:32;;;;;;;224.75;38.38;;;0.70;96.00;;;;;;4985887;28;20451;-89
2022/12/10 08:45:58;;;;;;;234.30;38.87;;;0.70;96.00;;;;;;4968647;28;20833;-89
2022/12/10 08:48:24;;;;;;;179.52;37.13;;;0.70;96.00;;;;;;4986187;28;20760;-89
2022/12/10 08:50:50;;;;;;;263.93;42.17;;;0.70;96.00;;;;;;4968907;28;20529;-89
2022/12/10 08:53:15;;;;;;;243.60;41.33;;;0.70;96.10;;;;;;4985925;28;20576;-89
2022/12/10 08:55:41;;;;;;;186.68;36.00;;;0.70;96.00;;;;;;4987520;28;20886;-88
2022/12/10 08:58:08;;;;;;;218.60;37.53;;;0.70;95.90;;;;;;4989317;28;20414;-89
2022/12/10 09:00:34;;;;;;;203.85;37.42;;;0.70;96.00;;;;;;4973358;28;20489;-89
2022/12/10 09:02:59;;;;;;;205.32;37.35;;;0.80;96.00;;;;;;4988541;28;20503;-88
2022/12/10 09:05:25;;;;;;;272.10;40.03;;;0.80;96.00;;;;;;4973713;28;20413;-89
2022/12/10 09:07:51;;;;;;;256.63;40.10;;;0.80;96.00;;;;;;4971911;28;20509;-89
2022/12/10 09:10:16;;;;;;;199.52;37.22;;;0.70;95.90;;;;;;4989361;28;20406;-89
2022/12/10 09:12:42;;;;;;;198.85;36.58;;;0.80;96.00;;;;;;4988175;28;20454;-89
2022/12/10 09:15:09;;;;;;;189.57;34.23;;;0.80;95.80;;;;;;4973105;28;20458;-89
2022/12/10 09:17:37;;;;;;;214.32;36.40;;;0.80;95.90;;;;;;4989456;28;20419;-88
2022/12/10 09:20:03;;;;;;;289.52;41.67;;;0.80;95.80;;;;;;4988067;28;20500;-89
2022/12/10 09:22:29;;;;;;;138.85;33.92;;;0.80;95.80;;;;;;4989370;28;20411;-89
2022/12/10 09:24:55;;;;;;;226.20;36.95;;;0.70;95.70;;;;;;4971622;28;20996;-90
2022/12/10 09:27:20;;;;;;;328.55;42.55;;;0.80;95.90;;;;;;4988770;28;20797;-88
2022/12/10 09:29:46;;;;;;;170.57;35.47;;;0.90;95.90;;;;;;4987700;28;20414;-88
2022/12/10 09:32:12;;;;;;;249.23;39.17;;;0.80;95.90;;;;;;4972997;28;20433;-88
2022/12/10 09:34:37;;;;;;;227.70;38.50;;;0.80;95.80;;;;;;4971781;28;20950;-87
2022/12/10 09:37:03;;;;;;;131.73;33.35;;;0.80;95.70;;;;;;4987611;28;20423;-89
2022/12/10 09:39:28;;;;;;;195.90;36.30;;;0.70;95.70;;;;;;4972391;28;20410;-88
2022/12/10 09:42:17;;;;;;;159.57;35.47;;;0.80;95.80;;;;;;4987275;28;20403;-89
2022/12/10 09:45:00;;;;;;;197.93;40.47;;;0.80;95.70;;;;;;4988925;28;20419;-89
2022/12/10 09:47:46;;;;;;;180.18;37.63;;;0.80;95.70;;;;;;4987721;28;20500;-89
2022/12/10 09:50:23;;;;;;;157.73;36.55;;;0.80;95.60;;;;;;4971488;28;20747;-89
2022/12/10 09:52:50;;;;;;;188.05;38.70;;;0.90;95.60;;;;;;4988529;28;20445;-88
2022/12/10 09:55:27;;;;;;;209.27;38.83;;;0.80;95.50;;;;;;4986995;28;20914;-89
2022/12/10 09:57:53;;;;;;;176.85;37.85;;;0.80;95.50;;;;;;4988628;28;20909;-87
2022/12/10 10:00:28;;;;;;;210.68;40.35;;;0.80;95.40;;;;;;4987246;28;20423;-88
2022/12/10 10:02:59;;;;;;;234.90;41.72;;;0.80;95.60;;;;;;4971440;28;20454;-88
2022/12/10 10:05:48;;;;;;;194.10;38.97;;;0.80;95.70;;;;;;4987891;28;20406;-89
2022/12/10 10:08:23;;;;;;;237.32;41.25;;;0.80;95.60;;;;;;4964445;28;20441;-89
2022/12/10 10:10:49;;;;;;;143.45;38.92;;;0.80;95.60;;;;;;4988008;28;20598;-89
2022/12/10 10:13:36;;;;;;;206.00;41.15;;;0.80;95.60;;;;;;4986906;28;20407;-88
2022/12/10 10:16:17;;;;;;;173.52;40.03;;;0.80;95.70;;;;;;4987084;28;20926;-88
2022/12/10 10:19:16;;;;;;;128.55;35.42;;;0.90;95.70;;;;;;4988274;28;20993;-89
2022/12/10 10:21:44;;;;;;;150.05;35.97;;;0.90;95.50;;;;;;4970514;28;20467;-89
2022/12/10 10:24:15;;;;;;;146.18;37.33;;;0.90;95.20;;;;;;4987501;28;20411;-88
2022/12/10 10:26:41;;;;;;;136.65;35.53;;;0.90;95.30;;;;;;4971095;28;20434;-87
2022/12/10 10:29:11;;;;;;;167.10;35.33;;;0.90;95.50;;;;;;4987166;28;20413;-90
2022/12/10 10:31:40;;;;;;;227.73;40.17;;;0.90;95.40;;;;;;4971796;28;20406;-89
2022/12/10 10:34:16;;;;;;;152.93;33.97;;;0.90;95.40;;;;;;4970782;28;20403;-90
2022/12/10 10:36:42;;;;;;;169.27;34.63;;;0.90;95.50;;;;;;4987626;28;20780;-90
2022/12/10 10:39:32;;;;;;;142.70;32.57;;;0.90;95.50;;;;;;4987254;28;20411;-89
2022/12/10 10:42:06;;;;;;;188.20;36.00;;;0.90;95.40;;;;;;4987599;28;20621;-89
2022/12/10 10:44:38;;;;;;;132.35;30.00;;;0.90;95.50;;;;;;4988092;28;20419;-89
2022/12/10 10:47:31;;;;;;;134.40;31.60;;;0.90;95.50;;;;;;4986416;28;20523;-91
2022/12/10 10:49:58;;;;;;;149.13;33.35;;;0.90;95.40;;;;;;4987742;28;20427;-89
2022/12/10 10:52:29;;;;;;;142.57;33.90;;;0.90;95.50;;;;;;4986835;28;20806;-89
2022/12/10 10:54:54;;;;;;;140.93;36.03;;;0.90;95.50;;;;;;4970819;28;20482;-89
2022/12/10 10:57:35;;;;;;;108.47;32.33;;;0.80;95.50;;;;;;4987574;28;20497;-89
2022/12/10 11:00:04;;;;;;;115.80;30.52;;;0.90;95.40;;;;;;4986288;28;20410;-89
2022/12/10 11:02:34;;;;;;;119.45;31.30;;;0.80;95.30;;;;;;4987789;28;20409;-88
2022/12/10 11:05:15;;;;;;;138.23;34.55;;;0.80;95.50;;;;;;4985956;28;20421;-89
2022/12/10 11:07:41;;;;;;;137.38;34.97;;;0.80;95.60;;;;;;4970290;28;20431;-89
2022/12/10 11:10:20;;;;;;;101.03;30.67;;;0.80;95.40;;;;;;4986981;28;20452;-88
2022/12/10 11:12:56;;;;;;;114.38;31.98;;;0.90;95.50;;;;;;4969793;28;20450;-88
2022/12/10 11:15:22;;;;;;;113.20;32.13;;;0.90;95.20;;;;;;4987396;28;20536;-89
2022/12/10 11:17:49;;;;;;;121.85;31.67;;;0.90;95.30;;;;;;4985250;28;20450;-89
2022/12/10 11:20:18;;;;;;;109.78;30.30;;;0.90;95.30;;;;;;4971151;28;20406;-89
2022/12/10 11:22:54;;;;;;;125.88;31.25;;;0.90;95.30;;;;;;4970130;28;20517;-88
2022/12/10 11:25:27;;;;;;;102.70;31.67;;;0.90;95.20;;;;;;4986570;28;20410;-90
2022/12/10 11:28:04;;;;;;;153.97;35.67;;;0.90;95.30;;;;;;4987283;28;20419;-90
2022/12/10 11:30:36;;;;;;;117.07;31.47;;;0.90;95.40;;;;;;4969203;28;20430;-89
2022/12/10 11:33:31;;;;;;;131.60;34.45;;;1.00;95.40;;;;;;4987396;28;20913;-89
2022/12/10 11:36:24;;;;;;;90.38;28.20;;;1.00;95.30;;;;;;4986338;28;20422;-88
2022/12/10 11:38:57;;;;;;;114.03;32.05;;;1.00;95.20;;;;;;4985404;28;20419;-90
2022/12/10 11:41:35;;;;;;;122.95;31.30;;;1.00;95.10;;;;;;4971128;28;20414;-89
2022/12/10 11:45:05;;;;;;;119.30;31.90;;;1.00;95.30;;;;;;4985759;28;20422;-89
2022/12/10 11:47:51;;;;;;;122.40;32.03;;;1.00;95.30;;;;;;4916040;28;20865;-90
2022/12/10 11:50:27;;;;;;;115.53;32.63;;;1.00;95.20;;;;;;4987078;28;20415;-90
2022/12/10 11:53:12;;;;;;;147.23;36.50;;;1.00;95.20;;;;;;4969436;28;20426;-89
2022/12/10 11:56:03;;;;;;;108.65;33.67;;;1.00;95.40;;;;;;4986080;28;20422;-90
2022/12/10 11:58:58;;;;;;;142.05;33.47;;;1.00;95.40;;;;;;4987106;28;20415;-89
2022/12/10 12:01:55;;;;;;;132.55;34.97;;;1.00;95.40;;;;;;4985152;28;21022;-89
2022/12/10 12:04:36;;;;;;;176.25;39.60;;;1.10;95.40;;;;;;4985937;28;20498;-89
2022/12/10 12:07:21;;;;;;;115.97;33.15;;;1.10;95.40;;;;;;4970155;28;20442;-89
2022/12/10 12:10:07;;;;;;;110.50;33.70;;;1.00;95.20;;;;;;4984909;28;20417;-88
2022/12/10 12:12:54;;;;;;;108.85;33.28;;;1.00;95.30;;;;;;4969633;28;20425;-88
2022/12/10 12:15:24;;;;;;;124.38;34.50;;;1.00;95.10;;;;;;4986168;28;20462;-87
2022/12/10 12:18:04;;;;;;;95.23;32.33;;;1.00;95.10;;;;;;4968874;28;20437;-91
2022/12/10 12:20:35;;;;;;;100.45;31.95;;;1.00;95.20;;;;;;4986458;28;20422;-88
2022/12/10 12:23:13;;;;;;;110.97;34.35;;;1.00;95.10;;;;;;4985046;28;20406;-88
2022/12/10 12:25:48;;;;;;;125.82;37.88;;;0.90;95.00;;;;;;4986022;28;20429;-88
2022/12/10 12:28:26;;;;;;;102.80;34.45;;;1.00;95.40;;;;;;4970298;28;20407;-89
2022/12/10 12:31:18;;;;;;;105.67;35.07;;;1.00;95.40;;;;;;4971413;28;20422;-88
2022/12/10 12:33:51;;;;;;;102.45;35.53;;;1.00;95.40;;;;;;4989929;28;20914;-88
2022/12/10 12:36:28;;;;;;;112.70;36.47;;;1.10;95.30;;;;;;4989364;28;20927;-88
2022/12/10 12:39:24;;;;;;;109.57;37.20;;;1.10;95.20;;;;;;4972923;28;20415;-89
2022/12/10 12:42:01;;;;;;;143.98;40.10;;;1.00;95.20;;;;;;4990554;28;20421;-87
2022/12/10 12:44:40;;;;;;;150.57;39.13;;;1.10;95.40;;;;;;4989051;28;20453;-87
2022/12/10 12:47:43;;;;;;;118.50;39.40;;;1.10;95.30;;;;;;4989574;28;20434;-89
2022/12/10 12:50:46;;;;;;;167.07;40.70;;;1.10;95.40;;;;;;4990392;28;20497;-89